Time;durP1;ratioP1;P1;durP2;ratioP2;P2;SDS_P1;SDS_P2;PMS_P1;PMS_P2;Temp;Humidity;BMP_temperature;BMP_pressure;BME280_temperature;BME280_humidity;BME280_pressure;Samples;Min_cycle;Max_cycle;Signal;HPM_P1;HPM_P2
2021/06/26 00:01:13;;;;;;;5.57;4.03;;;;;;;22.22;74.46;100528.38;4893535;28;102303;-76
2021/06/26 00:03:39;;;;;;;5.17;4.60;;;;;;;22.21;74.53;100531.50;4893566;28;103246;-76
2021/06/26 00:06:06;;;;;;;5.15;4.13;;;;;;;22.20;74.55;100530.69;4894163;28;102433;-76
2021/06/26 00:08:32;;;;;;;4.45;4.03;;;;;;;22.20;74.46;100525.16;4893617;28;104008;-75
2021/06/26 00:10:59;;;;;;;11.40;4.70;;;;;;;22.22;74.39;100531.16;4893481;28;102508;-75
2021/06/26 00:13:26;;;;;;;4.78;4.38;;;;;;;22.22;74.45;100535.91;4887466;28;102687;-77
2021/06/26 00:15:53;;;;;;;5.28;4.10;;;;;;;22.20;74.52;100541.78;4894038;28;102688;-76
2021/06/26 00:18:21;;;;;;;5.72;4.57;;;;;;;22.20;74.55;100541.78;4893629;28;103942;-76
2021/06/26 00:20:48;;;;;;;8.50;4.57;;;;;;;22.20;74.37;100558.41;4891995;28;102163;-75
2021/06/26 00:23:14;;;;;;;4.88;4.10;;;;;;;22.21;74.55;100560.00;4885391;28;102134;-75
2021/06/26 00:25:41;;;;;;;5.50;4.20;;;;;;;22.20;74.46;100557.59;4887714;28;103250;-76
2021/06/26 00:28:07;;;;;;;4.60;4.20;;;;;;;22.19;74.52;100556.00;4891281;28;104034;-76
2021/06/26 00:30:34;;;;;;;5.03;4.25;;;;;;;22.19;74.54;100551.25;4892294;28;102140;-75
2021/06/26 00:33:01;;;;;;;5.32;4.40;;;;;;;22.19;74.47;100551.25;4891952;28;102502;-78
2021/06/26 00:35:29;;;;;;;4.78;4.30;;;;;;;22.19;74.51;100554.03;4894880;28;102319;-78
2021/06/26 00:37:58;;;;;;;5.10;4.60;;;;;;;22.18;74.38;100557.97;4892270;28;103920;-78
2021/06/26 00:40:24;;;;;;;8.60;4.13;;;;;;;22.17;74.57;100553.56;4892132;28;102586;-77
2021/06/26 00:42:51;;;;;;;4.95;4.43;;;;;;;22.18;74.38;100552.44;4890667;28;102056;-76
2021/06/26 00:45:18;;;;;;;6.10;4.20;;;;;;;22.18;74.39;100552.44;4894353;28;102084;-79
2021/06/26 00:47:45;;;;;;;4.88;4.35;;;;;;;22.18;74.38;100552.44;4885551;28;104000;-76
2021/06/26 00:50:16;;;;;;;7.10;4.15;;;;;;;22.17;74.52;100548.03;4891278;28;102446;-78
2021/06/26 00:52:44;;;;;;;5.32;4.30;;;;;;;22.18;74.34;100559.91;4889875;28;102361;-77
2021/06/26 00:55:12;;;;;;;4.65;4.25;;;;;;;22.17;74.62;100564.66;4891858;28;102224;-77
2021/06/26 00:57:42;;;;;;;5.70;4.57;;;;;;;22.16;74.48;100560.28;4892031;28;103979;-77
2021/06/26 01:00:10;;;;;;;9.05;4.72;;;;;;;22.18;74.56;100559.91;4893505;28;102433;-76
2021/06/26 01:02:37;;;;;;;4.93;3.97;;;;;;;22.18;74.56;100557.97;4889181;28;102440;-76
2021/06/26 01:05:05;;;;;;;4.40;4.10;;;;;;;22.16;74.61;100560.28;4891463;28;102711;-76
2021/06/26 01:07:31;;;;;;;4.57;4.18;;;;;;;22.17;74.52;100553.56;4887195;28;104101;-78
2021/06/26 01:09:59;;;;;;;5.85;4.15;;;;;;;22.17;74.46;100545.25;4893070;28;102154;-77
2021/06/26 01:12:26;;;;;;;4.22;3.83;;;;;;;22.17;74.49;100542.47;4885096;28;102331;-76
2021/06/26 01:14:52;;;;;;;5.97;4.05;;;;;;;22.16;74.43;100540.88;4894272;28;102274;-77
2021/06/26 01:17:20;;;;;;;5.68;4.10;;;;;;;22.16;74.43;100543.66;4882312;28;103735;-76
2021/06/26 01:19:46;;;;;;;4.90;4.00;;;;;;;22.17;74.59;100548.03;4892059;28;105524;-76
2021/06/26 01:22:15;;;;;;;4.55;4.13;;;;;;;22.18;74.42;100544.13;4891519;28;102452;-76
2021/06/26 01:24:43;;;;;;;5.80;4.35;;;;;;;22.16;74.49;100535.34;4891835;28;102305;-75
2021/06/26 01:27:10;;;;;;;5.05;4.55;;;;;;;22.17;74.55;100536.13;4892210;28;104077;-76
2021/06/26 01:29:36;;;;;;;4.88;4.30;;;;;;;22.16;74.46;100529.78;4891556;28;102620;-76
2021/06/26 01:32:06;;;;;;;4.28;3.95;;;;;;;22.16;74.48;100529.78;4891986;28;102526;-76
2021/06/26 01:34:32;;;;;;;5.95;4.90;;;;;;;22.15;74.56;100522.66;4884495;28;102292;-78
2021/06/26 01:36:59;;;;;;;5.20;4.28;;;;;;;22.16;74.50;100515.94;4888987;28;103887;-76
2021/06/26 01:39:25;;;;;;;4.80;4.40;;;;;;;22.16;74.44;100517.91;4889800;28;102289;-76
2021/06/26 01:41:53;;;;;;;4.85;4.28;;;;;;;22.16;74.57;100518.72;4892196;28;102347;-76
2021/06/26 01:44:20;;;;;;;7.10;4.40;;;;;;;22.17;74.49;100519.50;4892404;28;102693;-76
2021/06/26 01:46:47;;;;;;;4.40;4.00;;;;;;;22.17;74.52;100525.84;4892634;28;102644;-76
2021/06/26 01:49:14;;;;;;;5.15;4.28;;;;;;;22.18;74.59;100526.66;4892653;28;102277;-77
2021/06/26 01:51:41;;;;;;;4.90;4.40;;;;;;;22.18;74.37;100530.25;4892794;28;102622;-77
2021/06/26 01:54:09;;;;;;;5.10;4.18;;;;;;;22.17;74.26;100523.09;4892927;28;102421;-75
2021/06/26 01:56:36;;;;;;;4.78;4.30;;;;;;;22.17;74.48;100525.84;4892815;28;102881;-76
2021/06/26 01:59:05;;;;;;;4.32;3.92;;;;;;;22.18;74.25;100524.72;4891697;28;102701;-77
2021/06/26 02:01:32;;;;;;;4.72;4.32;;;;;;;22.16;74.45;100518.72;4890161;28;102062;-76
2021/06/26 02:03:59;;;;;;;5.33;4.67;;;;;;;22.14;74.54;100523.78;4895333;28;102497;-77
2021/06/26 02:06:26;;;;;;;4.45;4.05;;;;;;;22.16;74.60;100529.00;4884396;28;103984;-76
2021/06/26 02:08:53;;;;;;;4.60;4.20;;;;;;;22.16;74.38;100518.72;4892152;28;102698;-76
2021/06/26 02:11:20;;;;;;;4.85;4.22;;;;;;;22.16;74.46;100518.72;4881349;28;102431;-76
2021/06/26 02:13:46;;;;;;;4.50;4.10;;;;;;;22.15;74.53;100500.47;4877250;28;102539;-76
2021/06/26 02:16:14;;;;;;;5.05;4.40;;;;;;;22.16;74.60;100501.28;4896084;28;104340;-76
2021/06/26 02:18:41;;;;;;;4.50;4.10;;;;;;;22.16;74.42;100502.06;4891099;28;102515;-76
2021/06/26 02:21:07;;;;;;;4.72;4.28;;;;;;;22.16;74.62;100515.13;4891098;28;102178;-77
2021/06/26 02:23:34;;;;;;;5.50;4.53;;;;;;;22.16;74.53;100518.72;4891688;28;102620;-76
2021/06/26 02:26:01;;;;;;;4.88;4.43;;;;;;;22.16;74.45;100518.72;4879938;28;102406;-77
2021/06/26 02:28:27;;;;;;;5.00;4.60;;;;;;;22.16;74.64;100517.91;4892479;28;102326;-77
2021/06/26 02:30:54;;;;;;;5.18;4.78;;;;;;;22.15;74.43;100514.34;4891605;28;102133;-78
2021/06/26 02:33:22;;;;;;;4.90;4.50;;;;;;;22.15;74.68;100517.09;4889675;28;102367;-75
2021/06/26 02:35:48;;;;;;;5.20;4.77;;;;;;;22.16;74.54;100523.44;4892355;28;103262;-75
2021/06/26 02:38:14;;;;;;;4.97;4.47;;;;;;;22.16;74.60;100524.25;4891383;28;102550;-78
2021/06/26 02:40:41;;;;;;;5.05;4.53;;;;;;;22.15;74.51;100519.88;4890748;28;102815;-76
2021/06/26 02:43:07;;;;;;;5.07;4.57;;;;;;;22.15;74.32;100511.56;4886910;28;102433;-76
2021/06/26 02:45:34;;;;;;;5.35;4.85;;;;;;;22.15;74.52;100511.56;4889925;28;103864;-77
2021/06/26 02:48:00;;;;;;;4.35;3.85;;;;;;;22.16;74.46;100509.59;4891662;28;102161;-77
2021/06/26 02:50:28;;;;;;;5.32;4.80;;;;;;;22.15;74.45;100506.03;4892015;28;102217;-76
2021/06/26 02:52:55;;;;;;;4.88;4.47;;;;;;;22.16;74.56;100507.63;4888267;28;102587;-77
2021/06/26 02:55:21;;;;;;;4.70;4.30;;;;;;;22.16;74.48;100501.28;4885488;28;104007;-76
2021/06/26 02:57:48;;;;;;;5.28;4.75;;;;;;;22.17;74.51;100498.13;4891149;28;104802;-77
2021/06/26 03:00:15;;;;;;;5.88;5.25;;;;;;;22.17;74.33;100498.13;4889861;28;102327;-76
2021/06/26 03:02:42;;;;;;;5.45;4.95;;;;;;;22.17;74.48;100498.13;4892749;28;102512;-75
2021/06/26 03:05:09;;;;;;;5.65;4.70;;;;;;;22.16;74.57;100493.75;4889406;28;103466;-76
2021/06/26 03:07:37;;;;;;;5.78;4.90;;;;;;;22.19;74.48;100497.78;4890179;28;102530;-77
2021/06/26 03:10:05;;;;;;;5.00;4.60;;;;;;;22.18;74.44;100499.78;4877184;28;102342;-77
2021/06/26 03:12:42;;;;;;;5.28;4.78;;;;;;;22.19;74.55;100508.88;4892163;28;102592;-77
2021/06/26 03:15:09;;;;;;;5.07;4.68;;;;;;;22.18;74.62;100508.09;4889365;28;103921;-77
2021/06/26 03:17:36;;;;;;;5.10;4.60;;;;;;;22.18;74.53;100519.16;4890396;28;102669;-77
2021/06/26 03:20:04;;;;;;;5.03;4.55;;;;;;;22.19;74.67;100523.53;4890291;28;105122;-76
2021/06/26 03:22:30;;;;;;;8.40;5.10;;;;;;;22.19;74.54;100534.63;4889890;28;102581;-76
2021/06/26 03:24:58;;;;;;;5.05;4.43;;;;;;;22.19;74.53;100539.38;4888496;28;104373;-78
2021/06/26 03:27:24;;;;;;;6.90;5.13;;;;;;;22.19;74.48;100536.59;4884261;28;102598;-77
2021/06/26 03:29:51;;;;;;;4.97;4.57;;;;;;;22.20;74.48;100538.22;4890311;28;102544;-77
2021/06/26 03:32:17;;;;;;;5.18;4.78;;;;;;;22.19;74.53;100540.19;4891321;28;102423;-77
2021/06/26 03:34:44;;;;;;;5.10;4.60;;;;;;;22.20;74.61;100540.97;4886155;28;103939;-78
2021/06/26 03:37:11;;;;;;;5.28;4.78;;;;;;;22.20;74.64;100541.78;4889967;28;101953;-77
2021/06/26 03:39:37;;;;;;;6.75;4.90;;;;;;;22.20;74.43;100546.53;4890227;28;102597;-76
2021/06/26 03:42:09;;;;;;;5.15;4.65;;;;;;;22.20;74.43;100547.31;4890942;28;102744;-77
2021/06/26 03:44:35;;;;;;;4.95;4.53;;;;;;;22.21;74.53;100553.66;4880451;28;103764;-77
2021/06/26 03:47:03;;;;;;;5.85;4.70;;;;;;;22.21;74.42;100551.69;4884514;28;103514;-77
2021/06/26 03:49:35;;;;;;;5.27;4.77;;;;;;;22.21;74.48;100565.56;4890391;28;102687;-78
2021/06/26 03:52:01;;;;;;;6.28;4.82;;;;;;;22.21;74.30;100560.00;4884899;28;102239;-77
2021/06/26 03:54:28;;;;;;;5.07;4.57;;;;;;;22.21;74.43;100557.25;4888435;28;103971;-76
2021/06/26 03:56:55;;;;;;;5.28;4.88;;;;;;;22.20;74.47;100561.19;4889851;28;102746;-76
2021/06/26 03:59:23;;;;;;;5.38;4.90;;;;;;;22.22;74.51;100555.31;4888104;28;102702;-77
2021/06/26 04:01:50;;;;;;;5.68;5.07;;;;;;;22.23;74.31;100563.25;4886114;28;102494;-78
2021/06/26 04:04:19;;;;;;;6.35;4.93;;;;;;;22.21;74.39;100571.09;4887060;28;103951;-77
2021/06/26 04:06:47;;;;;;;5.07;4.68;;;;;;;22.23;74.43;100563.25;4885721;28;102597;-76
2021/06/26 04:09:13;;;;;;;5.10;4.60;;;;;;;22.23;74.42;100568.78;4879218;28;102224;-77
2021/06/26 04:11:40;;;;;;;5.57;5.10;;;;;;;22.25;74.44;100560.13;4892286;28;102344;-76
2021/06/26 04:14:06;;;;;;;5.60;5.10;;;;;;;22.22;74.38;100549.75;4878525;28;103955;-76
2021/06/26 04:16:34;;;;;;;5.30;4.90;;;;;;;22.25;74.33;100551.78;4888866;28;102395;-76
2021/06/26 04:19:01;;;;;;;5.27;4.60;;;;;;;22.24;74.45;100556.53;4889617;28;103237;-76
2021/06/26 04:21:28;;;;;;;4.88;4.47;;;;;;;22.25;74.37;100552.63;4892264;28;103327;-75
2021/06/26 04:23:55;;;;;;;5.55;5.05;;;;;;;22.26;74.34;100551.47;4889100;28;103991;-77
2021/06/26 04:26:21;;;;;;;5.65;5.15;;;;;;;22.26;74.25;100537.59;4888863;28;102526;-78
2021/06/26 04:28:48;;;;;;;5.50;5.03;;;;;;;22.27;74.17;100541.16;4889982;28;102973;-75
2021/06/26 04:31:15;;;;;;;5.53;5.00;;;;;;;22.27;74.36;100530.88;4891464;28;102555;-77
2021/06/26 04:33:42;;;;;;;5.85;5.35;;;;;;;22.28;74.37;100532.50;4885234;28;103922;-78
2021/06/26 04:36:13;;;;;;;5.57;5.07;;;;;;;22.28;74.43;100538.03;4890258;28;102363;-75
2021/06/26 04:38:40;;;;;;;5.18;4.78;;;;;;;22.30;74.33;100549.59;4893655;28;102657;-76
2021/06/26 04:41:07;;;;;;;5.25;4.75;;;;;;;22.31;74.12;100553.16;4893412;28;102511;-76
2021/06/26 04:43:34;;;;;;;5.70;5.20;;;;;;;22.30;74.32;100548.78;4892521;28;103900;-77
2021/06/26 04:46:01;;;;;;;5.22;4.72;;;;;;;22.31;74.06;100553.97;4892707;28;102661;-76
2021/06/26 04:48:29;;;;;;;6.85;5.13;;;;;;;22.32;74.14;100549.22;4890163;28;102210;-76
2021/06/26 04:50:57;;;;;;;6.07;5.47;;;;;;;22.31;74.06;100548.41;4892441;28;102715;-76
2021/06/26 04:53:24;;;;;;;5.22;4.72;;;;;;;22.33;74.15;100545.31;4893638;28;104107;-75
2021/06/26 04:55:53;;;;;;;5.47;4.97;;;;;;;22.34;74.22;100554.44;4890217;28;102276;-76
2021/06/26 04:58:21;;;;;;;5.78;4.97;;;;;;;22.33;74.44;100550.84;4890518;28;103168;-75
2021/06/26 05:00:50;;;;;;;5.60;5.10;;;;;;;22.34;74.15;100548.88;4885378;28;102468;-75
2021/06/26 05:03:17;;;;;;;6.10;5.10;;;;;;;22.34;74.35;100558.00;4892574;28;103985;-76
2021/06/26 05:05:44;;;;;;;6.25;5.22;;;;;;;22.35;74.07;100548.50;4883926;28;102499;-75
2021/06/26 05:08:12;;;;;;;5.65;5.15;;;;;;;22.36;74.24;100552.09;4892245;28;103171;-75
2021/06/26 05:10:39;;;;;;;5.70;5.20;;;;;;;22.37;74.23;100550.94;4891703;28;103849;-76
2021/06/26 05:13:06;;;;;;;5.25;4.85;;;;;;;22.37;74.13;100542.63;4885140;28;102691;-75
2021/06/26 05:15:33;;;;;;;5.32;4.90;;;;;;;22.38;74.08;100538.69;4892956;28;102436;-75
2021/06/26 05:17:59;;;;;;;5.63;5.00;;;;;;;22.39;74.07;100543.06;4892538;28;102247;-75
2021/06/26 05:20:26;;;;;;;5.60;5.10;;;;;;;22.39;74.19;100543.88;4893361;28;102705;-75
2021/06/26 05:22:54;;;;;;;5.03;4.63;;;;;;;22.42;73.92;100539.59;4887469;28;104061;-76
2021/06/26 05:25:22;;;;;;;5.38;4.88;;;;;;;22.43;74.01;100541.19;4892892;28;103030;-75
2021/06/26 05:27:48;;;;;;;5.67;5.17;;;;;;;22.43;74.00;100539.25;4891784;28;103218;-76
2021/06/26 05:30:15;;;;;;;5.82;5.32;;;;;;;22.45;74.03;100536.09;4889142;28;102549;-77
2021/06/26 05:32:42;;;;;;;5.50;5.00;;;;;;;22.46;74.07;100538.50;4889284;28;103855;-76
2021/06/26 05:35:09;;;;;;;5.20;4.80;;;;;;;22.48;74.07;100546.50;4893284;28;102116;-76
2021/06/26 05:37:36;;;;;;;5.47;5.07;;;;;;;22.49;73.91;100546.13;4891997;28;102515;-76
2021/06/26 05:40:03;;;;;;;5.30;4.90;;;;;;;22.50;73.93;100549.69;4890640;28;102171;-76
2021/06/26 05:42:31;;;;;;;5.38;4.97;;;;;;;22.51;73.86;100551.31;4891445;28;104013;-75
2021/06/26 05:44:58;;;;;;;5.43;4.93;;;;;;;22.54;73.87;100539.53;4890965;28;102304;-78
2021/06/26 05:47:24;;;;;;;5.53;4.93;;;;;;;22.54;73.84;100531.22;4891108;28;102435;-76
2021/06/26 05:49:53;;;;;;;5.00;4.60;;;;;;;22.55;73.88;100530.84;4892400;28;102333;-76
2021/06/26 05:52:20;;;;;;;5.97;5.47;;;;;;;22.58;73.68;100532.09;4884443;28;103885;-75
2021/06/26 05:54:47;;;;;;;5.20;4.80;;;;;;;22.58;73.60;100523.78;4890974;28;102400;-76
2021/06/26 05:57:14;;;;;;;5.55;5.05;;;;;;;22.59;73.74;100519.03;4889899;28;102224;-76
2021/06/26 05:59:42;;;;;;;5.15;4.65;;;;;;;22.62;73.55;100519.13;4892062;28;102551;-76
2021/06/26 06:02:13;;;;;;;5.20;4.80;;;;;;;22.62;73.53;100508.03;4887162;28;103649;-76
2021/06/26 06:04:40;;;;;;;5.10;4.75;;;;;;;22.64;73.67;100505.69;4887551;28;102698;-76
2021/06/26 06:07:09;;;;;;;;;;;;;;;22.65;73.45;100504.53;4891921;28;102432;-76
2021/06/26 06:09:36;;;;;;;8.00;5.25;;;;;;;22.67;73.46;100493.06;4891813;28;102406;-76
2021/06/26 06:12:03;;;;;;;5.20;4.80;;;;;;;22.67;73.57;100488.31;4883844;28;103887;-76
2021/06/26 06:14:30;;;;;;;5.80;5.20;;;;;;;22.68;73.65;100478.84;4889125;28;102600;-77
2021/06/26 06:16:58;;;;;;;5.25;4.85;;;;;;;22.69;73.43;100472.16;4892170;28;102427;-78
2021/06/26 06:19:24;;;;;;;7.23;5.03;;;;;;;22.71;73.39;100469.00;4889676;28;102637;-77
2021/06/26 06:21:51;;;;;;;5.60;5.10;;;;;;;22.71;73.46;100461.47;4888074;28;104154;-75
2021/06/26 06:24:17;;;;;;;5.80;5.25;;;;;;;22.73;73.37;100456.38;4888337;28;102559;-76
2021/06/26 06:26:44;;;;;;;5.13;4.72;;;;;;;22.74;73.50;100454.41;4885268;28;102619;-76
2021/06/26 06:29:10;;;;;;;5.50;5.00;;;;;;;22.76;73.50;100457.66;4891372;28;102280;-77
2021/06/26 06:31:37;;;;;;;5.15;4.75;;;;;;;22.76;73.53;100457.66;4890701;28;104004;-76
2021/06/26 06:34:05;;;;;;;5.03;4.63;;;;;;;22.77;73.35;100454.50;4892170;28;102223;-76
2021/06/26 06:36:49;;;;;;;5.40;4.90;;;;;;;22.78;73.30;100458.88;4890829;28;102149;-75
2021/06/26 06:39:15;;;;;;;5.28;4.88;;;;;;;22.79;73.50;100462.44;4891747;28;102458;-76
2021/06/26 06:41:42;;;;;;;5.47;4.97;;;;;;;22.80;73.44;100458.53;4888490;28;104020;-76
2021/06/26 06:44:08;;;;;;;6.18;5.35;;;;;;;22.82;73.39;100463.72;4884451;28;102159;-77
2021/06/26 06:46:35;;;;;;;6.70;5.30;;;;;;;22.82;73.33;100461.72;4898924;28;103197;-78
2021/06/26 06:49:01;;;;;;;5.90;4.97;;;;;;;22.83;73.43;100457.81;4895761;28;102425;-77
2021/06/26 06:51:29;;;;;;;6.85;5.15;;;;;;;22.84;73.40;100450.28;4891617;28;103418;-77
2021/06/26 06:53:56;;;;;;;5.57;5.07;;;;;;;22.85;73.45;100443.56;4899822;28;102531;-76
2021/06/26 06:56:22;;;;;;;5.65;5.25;;;;;;;22.85;73.19;100449.13;4885632;28;102558;-77
2021/06/26 06:58:49;;;;;;;6.10;5.05;;;;;;;22.87;73.50;100452.34;4883085;28;102298;-75
2021/06/26 07:01:16;;;;;;;5.50;5.00;;;;;;;22.87;73.66;100452.34;4889847;28;103937;-76
2021/06/26 07:03:42;;;;;;;5.82;5.43;;;;;;;22.87;73.13;100446.81;4884291;28;102341;-75
2021/06/26 07:06:09;;;;;;;6.20;5.50;;;;;;;22.89;73.21;100450.00;4889174;28;102069;-73
2021/06/26 07:08:36;;;;;;;6.65;5.50;;;;;;;22.89;73.41;100450.00;4893208;28;102283;-75
2021/06/26 07:11:03;;;;;;;6.78;5.43;;;;;;;22.89;73.33;100444.44;4887121;28;103848;-76
2021/06/26 07:13:29;;;;;;;6.25;5.68;;;;;;;22.89;73.24;100447.22;4890372;28;102329;-76
2021/06/26 07:15:56;;;;;;;6.10;5.60;;;;;;;22.90;73.35;100446.88;4885916;28;102821;-75
2021/06/26 07:18:23;;;;;;;5.50;5.00;;;;;;;22.91;73.27;100442.13;4892284;28;102767;-76
2021/06/26 07:20:50;;;;;;;6.18;5.65;;;;;;;22.91;73.23;100448.47;4889708;28;103919;-76
2021/06/26 07:23:16;;;;;;;5.50;5.07;;;;;;;22.92;73.13;100450.13;4888355;28;102441;-76
2021/06/26 07:25:44;;;;;;;6.20;5.60;;;;;;;22.93;73.31;100448.13;4899925;28;104036;-77
2021/06/26 07:28:10;;;;;;;5.90;5.40;;;;;;;22.93;73.23;100446.16;4877547;28;102696;-75
2021/06/26 07:30:37;;;;;;;5.38;4.88;;;;;;;22.93;73.17;100445.38;4882044;28;103990;-76
2021/06/26 07:33:04;;;;;;;5.97;5.32;;;;;;;22.95;73.24;100448.59;4882952;28;102248;-76
2021/06/26 07:35:31;;;;;;;6.13;5.63;;;;;;;22.96;73.13;100450.19;4887828;28;103286;-75
2021/06/26 07:37:57;;;;;;;6.85;6.15;;;;;;;22.96;73.19;100447.41;4889616;28;102195;-75
2021/06/26 07:40:25;;;;;;;8.38;6.45;;;;;;;23.07;74.81;100451.25;4889228;28;104036;-76
2021/06/26 07:42:53;;;;;;;15.00;8.77;;;;;;;23.41;76.33;100451.59;4888964;28;102066;-72
2021/06/26 07:45:20;;;;;;;17.45;9.13;;;;;;;23.53;75.35;100457.00;4887308;28;102188;-69
2021/06/26 07:47:46;;;;;;;21.15;8.85;;;;;;;23.47;74.59;100455.66;4891588;28;102684;-69
2021/06/26 07:50:13;;;;;;;10.38;7.70;;;;;;;23.42;74.41;100455.97;4889494;28;103886;-69
2021/06/26 07:52:40;;;;;;;12.63;7.70;;;;;;;23.38;74.59;100452.31;4890075;28;102204;-72
2021/06/26 07:55:07;;;;;;;9.73;7.55;;;;;;;23.36;74.14;100461.00;4889103;28;102312;-72
2021/06/26 07:57:36;;;;;;;8.52;7.70;;;;;;;23.33;74.15;100455.34;4891164;28;102260;-72
2021/06/26 08:00:07;;;;;;;9.05;7.60;;;;;;;23.30;73.80;100458.88;4886033;28;103895;-72
2021/06/26 08:02:34;;;;;;;8.57;7.30;;;;;;;23.30;73.97;100459.69;4890199;28;102996;-72
2021/06/26 08:05:00;;;;;;;10.48;8.65;;;;;;;23.30;73.79;100461.63;4888061;28;103299;-74
2021/06/26 08:07:26;;;;;;;9.23;7.70;;;;;;;23.27;73.91;100461.22;4888193;28;102506;-72
2021/06/26 08:09:53;;;;;;;10.57;8.68;;;;;;;23.26;73.68;100464.34;4890142;28;103719;-72
2021/06/26 08:12:19;;;;;;;13.00;9.00;;;;;;;23.25;73.88;100463.53;4889675;28;102918;-81
2021/06/26 08:14:54;;;;;;;13.02;8.32;;;;;;;23.31;74.00;100471.59;4892107;28;102689;-69
2021/06/26 08:17:22;;;;;;;10.30;8.75;;;;;;;23.31;73.64;100463.28;4893985;28;102213;-69
2021/06/26 08:19:48;;;;;;;9.70;8.57;;;;;;;23.27;73.64;100472.31;4889731;28;103901;-69
2021/06/26 08:22:15;;;;;;;11.05;9.15;;;;;;;23.29;73.63;100479.47;4881120;28;102384;-69
2021/06/26 08:24:42;;;;;;;10.02;8.85;;;;;;;23.29;73.50;100465.59;4887320;28;102440;-69
2021/06/26 08:27:08;;;;;;;9.57;8.48;;;;;;;23.26;73.59;100473.50;4892731;28;102364;-69
2021/06/26 08:29:36;;;;;;;11.77;8.90;;;;;;;23.27;73.30;100483.44;4890636;28;103923;-69
2021/06/26 08:32:04;;;;;;;9.90;9.00;;;;;;;23.29;73.47;100479.47;4892494;28;102811;-68
2021/06/26 08:34:32;;;;;;;9.45;8.55;;;;;;;23.25;73.13;100474.63;4892999;28;102456;-69
2021/06/26 08:36:59;;;;;;;11.45;9.18;;;;;;;23.25;73.28;100474.63;4894353;28;102310;-69
2021/06/26 08:39:25;;;;;;;9.10;8.25;;;;;;;23.24;73.39;100473.03;4891109;28;103898;-69
2021/06/26 08:41:52;;;;;;;9.35;8.45;;;;;;;23.24;73.43;100469.47;4888792;28;102034;-69
2021/06/26 08:44:19;;;;;;;10.77;9.68;;;;;;;23.24;73.32;100473.03;4888850;28;102354;-68
2021/06/26 08:46:49;;;;;;;9.77;8.82;;;;;;;23.22;73.55;100471.78;4889381;28;102412;-68
2021/06/26 08:49:16;;;;;;;10.10;8.98;;;;;;;23.20;72.95;100466.59;4891389;28;104679;-68
2021/06/26 08:51:45;;;;;;;10.07;9.18;;;;;;;23.20;73.31;100468.59;4892920;28;102355;-68
2021/06/26 08:54:13;;;;;;;10.43;9.27;;;;;;;23.20;73.30;100472.16;4888489;28;104186;-68
2021/06/26 08:56:42;;;;;;;9.40;8.40;;;;;;;23.21;73.32;100468.22;4890702;28;103008;-69
2021/06/26 08:59:09;;;;;;;9.75;8.48;;;;;;;23.20;73.29;100469.38;4891961;28;104168;-68
2021/06/26 09:01:36;;;;;;;9.98;8.98;;;;;;;23.20;73.26;100460.25;4897518;28;102602;-68
2021/06/26 09:04:04;;;;;;;9.55;8.63;;;;;;;23.20;73.21;100466.59;4876300;28;102474;-68
2021/06/26 09:06:33;;;;;;;10.35;9.30;;;;;;;23.18;73.24;100462.56;4892132;28;102736;-68
2021/06/26 09:09:02;;;;;;;10.63;9.52;;;;;;;23.18;73.04;100463.38;4891666;28;103931;-69
2021/06/26 09:11:29;;;;;;;12.02;9.38;;;;;;;23.19;73.24;100459.47;4891364;28;102088;-69
2021/06/26 09:13:56;;;;;;;12.73;9.38;;;;;;;23.20;73.05;100465.81;4887322;28;102817;-70
2021/06/26 09:16:23;;;;;;;10.23;9.23;;;;;;;23.20;73.04;100455.50;4891552;28;102436;-69
2021/06/26 09:18:51;;;;;;;10.23;9.23;;;;;;;23.17;73.02;100447.91;4882454;28;103725;-69
2021/06/26 09:21:27;;;;;;;9.88;8.98;;;;;;;23.16;73.03;100440.75;4890020;28;102738;-68
2021/06/26 09:24:00;;;;;;;10.40;9.50;;;;;;;23.17;73.10;100444.31;4890720;28;102632;-69
2021/06/26 09:26:29;;;;;;;10.40;9.18;;;;;;;23.18;73.23;100441.16;4892453;28;102773;-69
2021/06/26 09:28:55;;;;;;;10.25;9.20;;;;;;;23.18;73.16;100441.16;4891304;28;107535;-69
2021/06/26 09:31:23;;;;;;;10.63;9.52;;;;;;;23.19;73.10;100437.25;4889210;28;102533;-68
2021/06/26 09:33:57;;;;;;;10.48;8.98;;;;;;;23.21;73.30;100439.66;4892228;28;102980;-68
2021/06/26 09:36:31;;;;;;;10.75;9.55;;;;;;;23.21;73.15;100434.91;4892915;28;102481;-68
2021/06/26 09:39:00;;;;;;;10.83;9.83;;;;;;;23.23;73.18;100440.91;4882131;28;104105;-68
2021/06/26 09:41:28;;;;;;;;;;;;;;;23.23;73.31;100443.69;4889417;28;102801;-69
2021/06/26 09:44:06;;;;;;;10.40;9.00;;;;;;;23.22;73.15;100444.84;4891335;28;102405;-68
2021/06/26 09:46:42;;;;;;;10.18;9.30;;;;;;;23.22;73.23;100441.25;4893010;28;102708;-68
2021/06/26 09:49:09;;;;;;;10.05;9.15;;;;;;;23.21;73.15;100439.66;4891068;28;103985;-68
2021/06/26 09:51:35;;;;;;;10.35;9.30;;;;;;;23.19;73.24;100440.03;4887014;28;102108;-68
2021/06/26 09:54:04;;;;;;;10.60;9.60;;;;;;;23.18;72.97;100443.94;4886739;28;103584;-68
2021/06/26 09:56:40;;;;;;;10.13;9.23;;;;;;;23.18;72.89;100441.16;4889531;28;102893;-68
2021/06/26 09:59:08;;;;;;;10.00;9.00;;;;;;;23.18;73.01;100443.94;4888884;28;103755;-68
2021/06/26 10:01:38;;;;;;;10.53;9.60;;;;;;;23.17;73.03;100439.56;4886601;28;102378;-69
2021/06/26 10:04:05;;;;;;;11.07;9.98;;;;;;;23.16;72.93;100432.41;4889408;28;102370;-68
2021/06/26 10:06:33;;;;;;;10.40;9.30;;;;;;;23.16;73.08;100432.41;4885831;28;102356;-68
2021/06/26 10:09:00;;;;;;;9.73;8.73;;;;;;;23.15;73.06;100424.44;4890483;28;103970;-69
2021/06/26 10:11:29;;;;;;;10.52;9.52;;;;;;;23.16;73.48;100426.06;4890374;28;102492;-68
2021/06/26 10:14:01;;;;;;;10.40;9.50;;;;;;;23.16;73.11;100418.53;4886873;28;102094;-69
2021/06/26 10:16:29;;;;;;;10.15;9.25;;;;;;;23.16;73.13;100410.22;4889483;28;102624;-68
2021/06/26 10:18:57;;;;;;;10.68;9.68;;;;;;;23.14;73.10;100406.97;4877293;28;103913;-69
2021/06/26 10:21:25;;;;;;;10.50;9.50;;;;;;;23.12;73.17;100409.34;4880678;28;102093;-69
2021/06/26 10:23:54;;;;;;;10.68;9.65;;;;;;;23.12;72.98;100409.34;4887615;28;104350;-68
2021/06/26 10:26:20;;;;;;;;;;;;;;;23.11;73.24;100404.94;4876109;28;102786;-69
2021/06/26 10:28:49;;;;;;;10.70;9.80;;;;;;;23.12;73.12;100409.34;4888845;28;103869;-68
2021/06/26 10:31:28;;;;;;;10.60;9.70;;;;;;;23.11;73.05;100404.94;4889759;28;102549;-69
2021/06/26 10:34:07;;;;;;;10.68;9.68;;;;;;;23.10;73.01;100394.19;4887782;28;102683;-68
2021/06/26 10:36:35;;;;;;;10.27;9.25;;;;;;;23.10;72.96;100406.09;4889601;28;102605;-69
2021/06/26 10:39:02;;;;;;;10.48;9.55;;;;;;;23.11;73.10;100404.13;4888999;28;104118;-68
2021/06/26 10:41:30;;;;;;;10.68;9.63;;;;;;;23.12;72.95;100406.56;4874411;28;102710;-68
2021/06/26 10:43:58;;;;;;;10.68;9.68;;;;;;;23.12;72.91;100406.56;4889523;28;102263;-68
2021/06/26 10:46:26;;;;;;;10.57;9.57;;;;;;;23.09;73.05;100410.06;4889489;28;102887;-68
2021/06/26 10:48:58;;;;;;;10.27;9.25;;;;;;;23.08;72.99;100414.00;4886555;28;104044;-68
2021/06/26 10:51:33;;;;;;;10.63;9.63;;;;;;;23.07;73.08;100408.81;4889994;28;102180;-68
2021/06/26 10:54:10;;;;;;;11.35;10.25;;;;;;;23.07;73.21;100412.38;4889319;28;102545;-68
2021/06/26 10:56:39;;;;;;;11.00;10.00;;;;;;;23.06;73.11;100408.00;4890753;28;102329;-69
2021/06/26 10:59:09;;;;;;;10.98;9.95;;;;;;;23.06;73.12;100416.34;4889298;28;102692;-69
2021/06/26 11:01:39;;;;;;;11.05;10.05;;;;;;;23.06;73.18;100412.75;4888302;28;102084;-69
2021/06/26 11:04:09;;;;;;;10.90;9.80;;;;;;;23.05;73.04;100409.19;4890532;28;102674;-68
2021/06/26 11:06:37;;;;;;;10.38;9.48;;;;;;;23.04;73.09;100415.88;4889384;28;102528;-68
2021/06/26 11:09:06;;;;;;;10.73;9.77;;;;;;;23.05;73.50;100414.72;4885131;28;103937;-68
2021/06/26 11:11:34;;;;;;;10.40;9.48;;;;;;;23.06;73.09;100421.88;4890194;28;101978;-69
2021/06/26 11:14:14;;;;;;;11.93;9.95;;;;;;;23.06;73.09;100410.78;4886873;28;102511;-69
2021/06/26 11:17:02;;;;;;;10.70;9.70;;;;;;;23.05;72.99;100409.19;4888420;28;102576;-68
2021/06/26 11:19:31;;;;;;;10.77;9.88;;;;;;;23.05;73.01;100408.38;4890421;28;103450;-68